sensor_id;sensor_type;location;lat;lon;timestamp;P1;durP1;ratioP1;P2;durP2;ratioP2
13445;SDS011;6795;51.232;3.764;2023-03-23T00:02:03;1.25;;;0.50;;
13445;SDS011;6795;51.232;3.764;2023-03-23T00:04:30;1.65;;;0.60;;
13445;SDS011;6795;51.232;3.764;2023-03-23T00:06:57;0.90;;;0.57;;
13445;SDS011;6795;51.232;3.764;2023-03-23T00:09:26;1.05;;;0.70;;
13445;SDS011;6795;51.232;3.764;2023-03-23T00:11:53;1.10;;;0.57;;
13445;SDS011;6795;51.232;3.764;2023-03-23T00:14:22;3.72;;;0.60;;
13445;SDS011;6795;51.232;3.764;2023-03-23T00:16:50;2.83;;;0.70;;
13445;SDS011;6795;51.232;3.764;2023-03-23T00:19:19;0.75;;;0.47;;
13445;SDS011;6795;51.232;3.764;2023-03-23T00:21:47;2.53;;;0.60;;
13445;SDS011;6795;51.232;3.764;2023-03-23T00:24:19;2.00;;;0.60;;
13445;SDS011;6795;51.232;3.764;2023-03-23T00:26:47;1.60;;;0.60;;
13445;SDS011;6795;51.232;3.764;2023-03-23T00:29:17;0.73;;;0.60;;
13445;SDS011;6795;51.232;3.764;2023-03-23T00:31:46;2.55;;;0.73;;
13445;SDS011;6795;51.232;3.764;2023-03-23T00:34:16;1.88;;;0.98;;
13445;SDS011;6795;51.232;3.764;2023-03-23T00:36:47;1.58;;;0.80;;
13445;SDS011;6795;51.232;3.764;2023-03-23T00:39:16;2.13;;;0.98;;
13445;SDS011;6795;51.232;3.764;2023-03-23T00:41:44;2.85;;;1.13;;
13445;SDS011;6795;51.232;3.764;2023-03-23T00:44:12;3.65;;;0.80;;
13445;SDS011;6795;51.232;3.764;2023-03-23T00:46:42;1.40;;;0.80;;
13445;SDS011;6795;51.232;3.764;2023-03-23T00:49:11;2.70;;;1.08;;
13445;SDS011;6795;51.232;3.764;2023-03-23T00:51:39;0.68;;;0.68;;
13445;SDS011;6795;51.232;3.764;2023-03-23T00:54:09;1.98;;;0.80;;
13445;SDS011;6795;51.232;3.764;2023-03-23T00:56:38;3.88;;;1.10;;
13445;SDS011;6795;51.232;3.764;2023-03-23T00:59:05;1.05;;;0.77;;
13445;SDS011;6795;51.232;3.764;2023-03-23T01:01:32;2.92;;;0.70;;
13445;SDS011;6795;51.232;3.764;2023-03-23T01:04:01;0.80;;;0.80;;
13445;SDS011;6795;51.232;3.764;2023-03-23T01:06:29;2.40;;;0.70;;
13445;SDS011;6795;51.232;3.764;2023-03-23T01:09:00;1.42;;;0.98;;
13445;SDS011;6795;51.232;3.764;2023-03-23T01:11:30;0.90;;;0.80;;
13445;SDS011;6795;51.232;3.764;2023-03-23T01:13:57;2.25;;;0.80;;
13445;SDS011;6795;51.232;3.764;2023-03-23T01:16:25;3.75;;;0.95;;
13445;SDS011;6795;51.232;3.764;2023-03-23T01:18:53;2.00;;;1.02;;
13445;SDS011;6795;51.232;3.764;2023-03-23T01:21:20;1.92;;;0.70;;
13445;SDS011;6795;51.232;3.764;2023-03-23T01:23:50;2.50;;;0.77;;
13445;SDS011;6795;51.232;3.764;2023-03-23T01:26:18;2.72;;;0.63;;
13445;SDS011;6795;51.232;3.764;2023-03-23T01:28:48;0.63;;;0.63;;
13445;SDS011;6795;51.232;3.764;2023-03-23T01:31:17;2.22;;;0.50;;
13445;SDS011;6795;51.232;3.764;2023-03-23T01:33:46;0.68;;;0.47;;
13445;SDS011;6795;51.232;3.764;2023-03-23T01:36:16;1.40;;;0.50;;
13445;SDS011;6795;51.232;3.764;2023-03-23T01:38:46;0.82;;;0.70;;
13445;SDS011;6795;51.232;3.764;2023-03-23T01:41:15;2.08;;;0.60;;
13445;SDS011;6795;51.232;3.764;2023-03-23T01:43:58;1.05;;;0.68;;
13445;SDS011;6795;51.232;3.764;2023-03-23T01:46:28;1.55;;;0.73;;
13445;SDS011;6795;51.232;3.764;2023-03-23T01:48:59;4.00;;;0.82;;
13445;SDS011;6795;51.232;3.764;2023-03-23T01:51:32;0.68;;;0.60;;
13445;SDS011;6795;51.232;3.764;2023-03-23T01:54:04;1.42;;;0.60;;
13445;SDS011;6795;51.232;3.764;2023-03-23T01:56:35;0.82;;;0.65;;
13445;SDS011;6795;51.232;3.764;2023-03-23T01:59:08;1.63;;;0.70;;
13445;SDS011;6795;51.232;3.764;2023-03-23T02:01:36;2.60;;;0.70;;
13445;SDS011;6795;51.232;3.764;2023-03-23T02:04:08;1.25;;;0.93;;
13445;SDS011;6795;51.232;3.764;2023-03-23T02:06:36;0.60;;;0.57;;
13445;SDS011;6795;51.232;3.764;2023-03-23T02:09:03;0.77;;;0.55;;
13445;SDS011;6795;51.232;3.764;2023-03-23T02:11:31;1.73;;;0.45;;
13445;SDS011;6795;51.232;3.764;2023-03-23T02:13:59;0.82;;;0.60;;
13445;SDS011;6795;51.232;3.764;2023-03-23T02:16:32;2.90;;;1.13;;
13445;SDS011;6795;51.232;3.764;2023-03-23T02:19:07;1.33;;;0.52;;
13445;SDS011;6795;51.232;3.764;2023-03-23T02:22:02;1.58;;;0.60;;
13445;SDS011;6795;51.232;3.764;2023-03-23T02:24:57;2.42;;;0.60;;
13445;SDS011;6795;51.232;3.764;2023-03-23T02:30:47;0.90;;;0.40;;
13445;SDS011;6795;51.232;3.764;2023-03-23T02:36:13;1.60;;;0.50;;
13445;SDS011;6795;51.232;3.764;2023-03-23T02:38:50;1.40;;;0.60;;
13445;SDS011;6795;51.232;3.764;2023-03-23T02:41:25;1.17;;;0.50;;
13445;SDS011;6795;51.232;3.764;2023-03-23T02:43:56;3.22;;;0.55;;
13445;SDS011;6795;51.232;3.764;2023-03-23T02:46:25;2.60;;;0.43;;
13445;SDS011;6795;51.232;3.764;2023-03-23T02:48:54;3.92;;;0.75;;
13445;SDS011;6795;51.232;3.764;2023-03-23T02:51:23;4.38;;;0.40;;
13445;SDS011;6795;51.232;3.764;2023-03-23T02:53:52;1.15;;;0.30;;
13445;SDS011;6795;51.232;3.764;2023-03-23T02:56:21;2.00;;;0.50;;
13445;SDS011;6795;51.232;3.764;2023-03-23T02:58:51;2.22;;;0.73;;
13445;SDS011;6795;51.232;3.764;2023-03-23T03:04:24;1.63;;;0.47;;
13445;SDS011;6795;51.232;3.764;2023-03-23T03:06:56;1.33;;;0.40;;
13445;SDS011;6795;51.232;3.764;2023-03-23T03:09:43;4.75;;;0.40;;
13445;SDS011;6795;51.232;3.764;2023-03-23T03:12:17;3.17;;;0.85;;
13445;SDS011;6795;51.232;3.764;2023-03-23T03:14:49;2.78;;;0.32;;
13445;SDS011;6795;51.232;3.764;2023-03-23T03:17:21;5.57;;;0.80;;
13445;SDS011;6795;51.232;3.764;2023-03-23T03:19:52;4.10;;;0.55;;
13445;SDS011;6795;51.232;3.764;2023-03-23T03:22:24;3.45;;;0.57;;
13445;SDS011;6795;51.232;3.764;2023-03-23T03:24:55;5.07;;;0.57;;
13445;SDS011;6795;51.232;3.764;2023-03-23T03:27:24;5.38;;;0.65;;
13445;SDS011;6795;51.232;3.764;2023-03-23T03:29:53;2.60;;;0.70;;
13445;SDS011;6795;51.232;3.764;2023-03-23T03:32:24;4.30;;;0.40;;
13445;SDS011;6795;51.232;3.764;2023-03-23T03:35:00;2.35;;;0.40;;
13445;SDS011;6795;51.232;3.764;2023-03-23T03:37:32;6.13;;;1.13;;
13445;SDS011;6795;51.232;3.764;2023-03-23T03:40:03;2.65;;;0.63;;
13445;SDS011;6795;51.232;3.764;2023-03-23T03:42:37;3.78;;;0.50;;
13445;SDS011;6795;51.232;3.764;2023-03-23T03:45:05;5.03;;;0.60;;
13445;SDS011;6795;51.232;3.764;2023-03-23T03:47:34;2.50;;;0.40;;
13445;SDS011;6795;51.232;3.764;2023-03-23T03:50:04;4.88;;;0.43;;
13445;SDS011;6795;51.232;3.764;2023-03-23T03:52:32;4.95;;;0.47;;
13445;SDS011;6795;51.232;3.764;2023-03-23T03:54:59;2.83;;;0.73;;
13445;SDS011;6795;51.232;3.764;2023-03-23T03:57:27;1.10;;;0.40;;
13445;SDS011;6795;51.232;3.764;2023-03-23T03:59:54;3.42;;;0.50;;
13445;SDS011;6795;51.232;3.764;2023-03-23T04:02:22;4.60;;;0.38;;
13445;SDS011;6795;51.232;3.764;2023-03-23T04:04:49;1.13;;;0.40;;
13445;SDS011;6795;51.232;3.764;2023-03-23T04:07:19;11.35;;;0.70;;
13445;SDS011;6795;51.232;3.764;2023-03-23T04:09:46;2.47;;;0.40;;
13445;SDS011;6795;51.232;3.764;2023-03-23T04:12:14;4.93;;;0.50;;
13445;SDS011;6795;51.232;3.764;2023-03-23T04:14:42;2.13;;;0.40;;
13445;SDS011;6795;51.232;3.764;2023-03-23T04:17:10;3.90;;;0.60;;
13445;SDS011;6795;51.232;3.764;2023-03-23T04:19:40;5.05;;;0.60;;
13445;SDS011;6795;51.232;3.764;2023-03-23T04:22:07;3.47;;;0.60;;
13445;SDS011;6795;51.232;3.764;2023-03-23T04:24:36;2.10;;;0.40;;
13445;SDS011;6795;51.232;3.764;2023-03-23T04:27:03;5.03;;;0.50;;
13445;SDS011;6795;51.232;3.764;2023-03-23T04:29:30;5.65;;;0.43;;
13445;SDS011;6795;51.232;3.764;2023-03-23T04:31:59;2.70;;;0.50;;
13445;SDS011;6795;51.232;3.764;2023-03-23T04:34:28;2.75;;;0.50;;
13445;SDS011;6795;51.232;3.764;2023-03-23T04:36:59;4.88;;;0.70;;
13445;SDS011;6795;51.232;3.764;2023-03-23T04:39:26;2.28;;;0.50;;
13445;SDS011;6795;51.232;3.764;2023-03-23T04:41:56;7.18;;;0.63;;
13445;SDS011;6795;51.232;3.764;2023-03-23T04:44:26;4.22;;;0.70;;
13445;SDS011;6795;51.232;3.764;2023-03-23T04:46:54;3.42;;;1.40;;
13445;SDS011;6795;51.232;3.764;2023-03-23T04:49:21;8.82;;;0.85;;
13445;SDS011;6795;51.232;3.764;2023-03-23T04:51:49;7.40;;;0.63;;
13445;SDS011;6795;51.232;3.764;2023-03-23T04:54:17;5.70;;;0.65;;
13445;SDS011;6795;51.232;3.764;2023-03-23T04:56:44;4.53;;;0.88;;
13445;SDS011;6795;51.232;3.764;2023-03-23T04:59:13;3.47;;;0.43;;
13445;SDS011;6795;51.232;3.764;2023-03-23T05:01:40;9.20;;;0.90;;
13445;SDS011;6795;51.232;3.764;2023-03-23T05:04:11;4.65;;;1.02;;
13445;SDS011;6795;51.232;3.764;2023-03-23T05:06:42;5.32;;;1.00;;
13445;SDS011;6795;51.232;3.764;2023-03-23T05:09:10;2.63;;;0.70;;
13445;SDS011;6795;51.232;3.764;2023-03-23T05:11:38;4.90;;;0.88;;
13445;SDS011;6795;51.232;3.764;2023-03-23T05:14:05;6.25;;;0.95;;
13445;SDS011;6795;51.232;3.764;2023-03-23T05:16:34;8.80;;;1.38;;
13445;SDS011;6795;51.232;3.764;2023-03-23T05:19:03;8.88;;;1.30;;
13445;SDS011;6795;51.232;3.764;2023-03-23T05:21:31;3.83;;;0.60;;
13445;SDS011;6795;51.232;3.764;2023-03-23T05:23:58;5.68;;;0.80;;
13445;SDS011;6795;51.232;3.764;2023-03-23T05:26:26;6.57;;;1.23;;
13445;SDS011;6795;51.232;3.764;2023-03-23T05:28:55;3.97;;;0.57;;
13445;SDS011;6795;51.232;3.764;2023-03-23T05:31:22;5.10;;;1.02;;
13445;SDS011;6795;51.232;3.764;2023-03-23T05:33:52;6.32;;;1.15;;
13445;SDS011;6795;51.232;3.764;2023-03-23T05:36:19;6.72;;;1.10;;
13445;SDS011;6795;51.232;3.764;2023-03-23T05:38:48;5.57;;;1.00;;
13445;SDS011;6795;51.232;3.764;2023-03-23T05:41:17;5.35;;;0.98;;
13445;SDS011;6795;51.232;3.764;2023-03-23T05:43:44;6.65;;;1.08;;
13445;SDS011;6795;51.232;3.764;2023-03-23T05:46:11;6.93;;;0.70;;
13445;SDS011;6795;51.232;3.764;2023-03-23T05:48:40;6.20;;;0.93;;
13445;SDS011;6795;51.232;3.764;2023-03-23T05:51:08;3.60;;;0.73;;
13445;SDS011;6795;51.232;3.764;2023-03-23T05:53:36;6.53;;;1.35;;
13445;SDS011;6795;51.232;3.764;2023-03-23T05:56:03;3.50;;;0.70;;
13445;SDS011;6795;51.232;3.764;2023-03-23T05:58:32;5.82;;;0.98;;
13445;SDS011;6795;51.232;3.764;2023-03-23T06:00:59;9.45;;;1.17;;
13445;SDS011;6795;51.232;3.764;2023-03-23T06:03:27;10.05;;;1.00;;
13445;SDS011;6795;51.232;3.764;2023-03-23T06:05:55;6.57;;;1.08;;
13445;SDS011;6795;51.232;3.764;2023-03-23T06:08:24;14.82;;;1.92;;
13445;SDS011;6795;51.232;3.764;2023-03-23T06:10:51;4.72;;;0.80;;
13445;SDS011;6795;51.232;3.764;2023-03-23T06:13:19;6.75;;;1.13;;
13445;SDS011;6795;51.232;3.764;2023-03-23T06:15:46;6.00;;;1.13;;
13445;SDS011;6795;51.232;3.764;2023-03-23T06:18:14;12.27;;;0.88;;
13445;SDS011;6795;51.232;3.764;2023-03-23T06:20:42;9.20;;;0.70;;
13445;SDS011;6795;51.232;3.764;2023-03-23T06:23:10;7.88;;;0.77;;
13445;SDS011;6795;51.232;3.764;2023-03-23T06:25:40;5.35;;;0.63;;
13445;SDS011;6795;51.232;3.764;2023-03-23T06:28:07;7.50;;;1.10;;
13445;SDS011;6795;51.232;3.764;2023-03-23T06:30:35;6.85;;;1.00;;
13445;SDS011;6795;51.232;3.764;2023-03-23T06:33:03;5.45;;;0.60;;
13445;SDS011;6795;51.232;3.764;2023-03-23T06:35:34;6.05;;;0.75;;
13445;SDS011;6795;51.232;3.764;2023-03-23T06:38:02;3.85;;;0.45;;
13445;SDS011;6795;51.232;3.764;2023-03-23T06:40:30;4.13;;;0.57;;
13445;SDS011;6795;51.232;3.764;2023-03-23T06:42:58;4.82;;;0.45;;
13445;SDS011;6795;51.232;3.764;2023-03-23T06:45:26;5.60;;;0.60;;
13445;SDS011;6795;51.232;3.764;2023-03-23T06:47:54;2.70;;;0.50;;
13445;SDS011;6795;51.232;3.764;2023-03-23T06:50:21;2.88;;;0.50;;
13445;SDS011;6795;51.232;3.764;2023-03-23T06:52:50;6.70;;;0.70;;
13445;SDS011;6795;51.232;3.764;2023-03-23T06:55:17;5.88;;;0.45;;
13445;SDS011;6795;51.232;3.764;2023-03-23T06:57:46;6.05;;;0.50;;
13445;SDS011;6795;51.232;3.764;2023-03-23T07:00:16;6.28;;;0.60;;
13445;SDS011;6795;51.232;3.764;2023-03-23T07:02:43;6.75;;;0.60;;
13445;SDS011;6795;51.232;3.764;2023-03-23T07:05:11;4.93;;;0.55;;
13445;SDS011;6795;51.232;3.764;2023-03-23T07:07:40;1.50;;;0.30;;
13445;SDS011;6795;51.232;3.764;2023-03-23T07:10:08;2.88;;;0.40;;
13445;SDS011;6795;51.232;3.764;2023-03-23T07:12:36;2.85;;;0.60;;
13445;SDS011;6795;51.232;3.764;2023-03-23T07:15:05;5.10;;;0.40;;
13445;SDS011;6795;51.232;3.764;2023-03-23T07:17:37;3.95;;;0.40;;
13445;SDS011;6795;51.232;3.764;2023-03-23T07:20:05;7.47;;;0.65;;
13445;SDS011;6795;51.232;3.764;2023-03-23T07:22:34;4.18;;;0.50;;
13445;SDS011;6795;51.232;3.764;2023-03-23T07:25:02;3.65;;;0.50;;
13445;SDS011;6795;51.232;3.764;2023-03-23T07:27:30;4.63;;;1.45;;
13445;SDS011;6795;51.232;3.764;2023-03-23T07:29:57;10.35;;;0.60;;
13445;SDS011;6795;51.232;3.764;2023-03-23T07:32:24;4.22;;;0.50;;
13445;SDS011;6795;51.232;3.764;2023-03-23T07:34:54;3.65;;;0.52;;
13445;SDS011;6795;51.232;3.764;2023-03-23T07:37:21;5.28;;;0.47;;
13445;SDS011;6795;51.232;3.764;2023-03-23T07:39:49;3.85;;;0.40;;
13445;SDS011;6795;51.232;3.764;2023-03-23T07:42:16;5.72;;;0.55;;
13445;SDS011;6795;51.232;3.764;2023-03-23T07:44:43;3.70;;;0.60;;
13445;SDS011;6795;51.232;3.764;2023-03-23T07:47:11;5.55;;;0.80;;
13445;SDS011;6795;51.232;3.764;2023-03-23T07:49:39;3.90;;;0.43;;
13445;SDS011;6795;51.232;3.764;2023-03-23T07:52:08;1.95;;;0.70;;
13445;SDS011;6795;51.232;3.764;2023-03-23T07:54:36;5.75;;;0.65;;
13445;SDS011;6795;51.232;3.764;2023-03-23T07:57:04;3.83;;;0.65;;
13445;SDS011;6795;51.232;3.764;2023-03-23T07:59:32;3.20;;;1.13;;
13445;SDS011;6795;51.232;3.764;2023-03-23T08:01:59;3.53;;;0.70;;
13445;SDS011;6795;51.232;3.764;2023-03-23T08:04:26;5.10;;;0.75;;
13445;SDS011;6795;51.232;3.764;2023-03-23T08:06:54;3.33;;;0.68;;
13445;SDS011;6795;51.232;3.764;2023-03-23T08:09:24;4.80;;;0.80;;
13445;SDS011;6795;51.232;3.764;2023-03-23T08:11:52;3.50;;;0.85;;
13445;SDS011;6795;51.232;3.764;2023-03-23T08:14:19;6.88;;;0.85;;
13445;SDS011;6795;51.232;3.764;2023-03-23T08:16:47;3.53;;;0.73;;
13445;SDS011;6795;51.232;3.764;2023-03-23T08:19:14;7.50;;;0.80;;
13445;SDS011;6795;51.232;3.764;2023-03-23T08:21:42;2.30;;;0.60;;
13445;SDS011;6795;51.232;3.764;2023-03-23T08:24:09;5.63;;;0.85;;
13445;SDS011;6795;51.232;3.764;2023-03-23T08:26:38;5.78;;;0.88;;
13445;SDS011;6795;51.232;3.764;2023-03-23T08:29:05;3.10;;;0.60;;
13445;SDS011;6795;51.232;3.764;2023-03-23T08:31:33;5.05;;;0.93;;
13445;SDS011;6795;51.232;3.764;2023-03-23T08:34:02;4.57;;;0.60;;
13445;SDS011;6795;51.232;3.764;2023-03-23T08:36:31;4.38;;;1.20;;
13445;SDS011;6795;51.232;3.764;2023-03-23T08:38:58;3.15;;;0.50;;
13445;SDS011;6795;51.232;3.764;2023-03-23T08:41:26;5.60;;;1.15;;
13445;SDS011;6795;51.232;3.764;2023-03-23T08:43:55;3.05;;;0.77;;
13445;SDS011;6795;51.232;3.764;2023-03-23T08:46:22;4.18;;;0.50;;
13445;SDS011;6795;51.232;3.764;2023-03-23T08:48:49;5.75;;;0.65;;
13445;SDS011;6795;51.232;3.764;2023-03-23T08:51:17;5.88;;;0.80;;
13445;SDS011;6795;51.232;3.764;2023-03-23T08:53:44;7.22;;;1.20;;
13445;SDS011;6795;51.232;3.764;2023-03-23T08:56:12;9.93;;;1.50;;
13445;SDS011;6795;51.232;3.764;2023-03-23T08:58:39;8.23;;;0.73;;
13445;SDS011;6795;51.232;3.764;2023-03-23T09:01:10;7.97;;;1.13;;
13445;SDS011;6795;51.232;3.764;2023-03-23T09:03:37;4.65;;;0.80;;
13445;SDS011;6795;51.232;3.764;2023-03-23T09:06:07;6.85;;;1.27;;
13445;SDS011;6795;51.232;3.764;2023-03-23T09:08:37;6.22;;;0.82;;
13445;SDS011;6795;51.232;3.764;2023-03-23T09:11:06;8.73;;;1.00;;
13445;SDS011;6795;51.232;3.764;2023-03-23T09:13:36;9.27;;;1.25;;
13445;SDS011;6795;51.232;3.764;2023-03-23T09:16:05;3.70;;;1.05;;
13445;SDS011;6795;51.232;3.764;2023-03-23T09:18:35;8.18;;;1.98;;
13445;SDS011;6795;51.232;3.764;2023-03-23T09:21:02;6.82;;;0.75;;
13445;SDS011;6795;51.232;3.764;2023-03-23T09:23:30;9.02;;;1.05;;
13445;SDS011;6795;51.232;3.764;2023-03-23T09:25:59;13.43;;;0.75;;
13445;SDS011;6795;51.232;3.764;2023-03-23T09:28:27;6.28;;;0.60;;
13445;SDS011;6795;51.232;3.764;2023-03-23T09:30:56;7.50;;;0.80;;
13445;SDS011;6795;51.232;3.764;2023-03-23T09:33:24;7.88;;;1.02;;
13445;SDS011;6795;51.232;3.764;2023-03-23T09:35:55;7.53;;;0.80;;
13445;SDS011;6795;51.232;3.764;2023-03-23T09:38:23;4.85;;;0.68;;
13445;SDS011;6795;51.232;3.764;2023-03-23T09:40:53;4.38;;;0.60;;
13445;SDS011;6795;51.232;3.764;2023-03-23T09:43:29;4.78;;;0.80;;
13445;SDS011;6795;51.232;3.764;2023-03-23T09:46:13;5.28;;;0.70;;
13445;SDS011;6795;51.232;3.764;2023-03-23T09:48:59;2.55;;;0.50;;
13445;SDS011;6795;51.232;3.764;2023-03-23T09:51:34;5.35;;;0.70;;
13445;SDS011;6795;51.232;3.764;2023-03-23T09:54:10;9.68;;;0.88;;
13445;SDS011;6795;51.232;3.764;2023-03-23T09:56:45;3.42;;;0.68;;
13445;SDS011;6795;51.232;3.764;2023-03-23T09:59:15;2.13;;;0.50;;
13445;SDS011;6795;51.232;3.764;2023-03-23T10:01:47;3.05;;;0.70;;
13445;SDS011;6795;51.232;3.764;2023-03-23T10:04:24;3.47;;;0.70;;
13445;SDS011;6795;51.232;3.764;2023-03-23T10:07:00;7.00;;;1.10;;
13445;SDS011;6795;51.232;3.764;2023-03-23T10:09:36;3.75;;;0.50;;
13445;SDS011;6795;51.232;3.764;2023-03-23T10:12:06;4.32;;;0.80;;
13445;SDS011;6795;51.232;3.764;2023-03-23T10:14:48;5.93;;;0.50;;
13445;SDS011;6795;51.232;3.764;2023-03-23T10:17:28;7.35;;;0.73;;
13445;SDS011;6795;51.232;3.764;2023-03-23T10:20:02;3.53;;;0.60;;
13445;SDS011;6795;51.232;3.764;2023-03-23T10:22:47;8.05;;;0.73;;
13445;SDS011;6795;51.232;3.764;2023-03-23T10:25:19;5.20;;;0.60;;
13445;SDS011;6795;51.232;3.764;2023-03-23T10:27:52;3.35;;;0.77;;
13445;SDS011;6795;51.232;3.764;2023-03-23T10:30:29;8.57;;;0.63;;
13445;SDS011;6795;51.232;3.764;2023-03-23T10:33:01;5.72;;;0.80;;
13445;SDS011;6795;51.232;3.764;2023-03-23T10:35:33;7.30;;;0.60;;
13445;SDS011;6795;51.232;3.764;2023-03-23T10:38:10;2.35;;;0.50;;
13445;SDS011;6795;51.232;3.764;2023-03-23T10:40:45;5.65;;;0.90;;
13445;SDS011;6795;51.232;3.764;2023-03-23T10:43:16;4.47;;;0.70;;
13445;SDS011;6795;51.232;3.764;2023-03-23T10:45:44;5.97;;;0.80;;
13445;SDS011;6795;51.232;3.764;2023-03-23T10:48:26;7.95;;;1.02;;
13445;SDS011;6795;51.232;3.764;2023-03-23T10:51:01;5.95;;;0.95;;
13445;SDS011;6795;51.232;3.764;2023-03-23T10:53:35;6.78;;;1.10;;
13445;SDS011;6795;51.232;3.764;2023-03-23T10:56:04;5.13;;;0.80;;
13445;SDS011;6795;51.232;3.764;2023-03-23T10:58:33;6.93;;;1.13;;
13445;SDS011;6795;51.232;3.764;2023-03-23T11:01:01;6.30;;;1.33;;
13445;SDS011;6795;51.232;3.764;2023-03-23T11:03:39;7.60;;;1.00;;
13445;SDS011;6795;51.232;3.764;2023-03-23T11:06:08;6.03;;;0.88;;
13445;SDS011;6795;51.232;3.764;2023-03-23T11:08:47;4.47;;;0.73;;
13445;SDS011;6795;51.232;3.764;2023-03-23T11:11:18;4.28;;;0.90;;
13445;SDS011;6795;51.232;3.764;2023-03-23T11:13:48;5.07;;;0.80;;
13445;SDS011;6795;51.232;3.764;2023-03-23T11:16:23;6.28;;;1.25;;
13445;SDS011;6795;51.232;3.764;2023-03-23T11:18:53;4.53;;;1.23;;
13445;SDS011;6795;51.232;3.764;2023-03-23T11:21:21;11.30;;;1.23;;
13445;SDS011;6795;51.232;3.764;2023-03-23T11:23:52;7.93;;;1.25;;
13445;SDS011;6795;51.232;3.764;2023-03-23T11:26:24;7.47;;;1.00;;
13445;SDS011;6795;51.232;3.764;2023-03-23T11:28:55;6.75;;;1.38;;
13445;SDS011;6795;51.232;3.764;2023-03-23T11:31:27;5.22;;;0.93;;
13445;SDS011;6795;51.232;3.764;2023-03-23T11:34:01;7.53;;;1.27;;
13445;SDS011;6795;51.232;3.764;2023-03-23T11:36:31;8.55;;;1.60;;
13445;SDS011;6795;51.232;3.764;2023-03-23T11:39:03;7.63;;;0.93;;
13445;SDS011;6795;51.232;3.764;2023-03-23T11:41:45;9.18;;;1.02;;
13445;SDS011;6795;51.232;3.764;2023-03-23T11:44:13;12.55;;;1.30;;
13445;SDS011;6795;51.232;3.764;2023-03-23T11:46:47;10.25;;;1.67;;
13445;SDS011;6795;51.232;3.764;2023-03-23T11:49:25;6.40;;;1.10;;
13445;SDS011;6795;51.232;3.764;2023-03-23T11:52:03;8.68;;;0.57;;
13445;SDS011;6795;51.232;3.764;2023-03-23T11:54:43;4.80;;;0.70;;
13445;SDS011;6795;51.232;3.764;2023-03-23T11:57:13;5.45;;;0.88;;
13445;SDS011;6795;51.232;3.764;2023-03-23T11:59:41;4.68;;;0.60;;
13445;SDS011;6795;51.232;3.764;2023-03-23T12:02:23;6.00;;;0.60;;
13445;SDS011;6795;51.232;3.764;2023-03-23T12:05:07;1.63;;;0.38;;
13445;SDS011;6795;51.232;3.764;2023-03-23T12:08:09;5.97;;;0.73;;
13445;SDS011;6795;51.232;3.764;2023-03-23T12:10:41;5.97;;;0.82;;
13445;SDS011;6795;51.232;3.764;2023-03-23T12:13:17;4.50;;;0.70;;
13445;SDS011;6795;51.232;3.764;2023-03-23T12:15:55;1.67;;;0.40;;
13445;SDS011;6795;51.232;3.764;2023-03-23T12:18:37;4.35;;;1.13;;
13445;SDS011;6795;51.232;3.764;2023-03-23T12:21:13;2.42;;;0.60;;
13445;SDS011;6795;51.232;3.764;2023-03-23T12:23:45;3.40;;;0.63;;
13445;SDS011;6795;51.232;3.764;2023-03-23T12:26:23;5.22;;;0.75;;
13445;SDS011;6795;51.232;3.764;2023-03-23T12:29:05;4.82;;;1.05;;
13445;SDS011;6795;51.232;3.764;2023-03-23T12:32:05;6.35;;;0.90;;
13445;SDS011;6795;51.232;3.764;2023-03-23T12:34:50;5.43;;;0.95;;
13445;SDS011;6795;51.232;3.764;2023-03-23T12:37:31;5.55;;;1.15;;
13445;SDS011;6795;51.232;3.764;2023-03-23T12:43:15;5.53;;;0.85;;
13445;SDS011;6795;51.232;3.764;2023-03-23T12:45:53;7.70;;;1.00;;
13445;SDS011;6795;51.232;3.764;2023-03-23T12:48:29;4.60;;;1.15;;
13445;SDS011;6795;51.232;3.764;2023-03-23T12:51:03;7.30;;;1.33;;
13445;SDS011;6795;51.232;3.764;2023-03-23T12:53:42;6.28;;;1.48;;
13445;SDS011;6795;51.232;3.764;2023-03-23T12:56:17;9.55;;;1.67;;
13445;SDS011;6795;51.232;3.764;2023-03-23T12:58:52;8.52;;;1.70;;
13445;SDS011;6795;51.232;3.764;2023-03-23T13:01:26;8.80;;;1.42;;
13445;SDS011;6795;51.232;3.764;2023-03-23T13:03:58;11.02;;;1.67;;
13445;SDS011;6795;51.232;3.764;2023-03-23T13:06:29;8.50;;;1.17;;
13445;SDS011;6795;51.232;3.764;2023-03-23T13:09:02;8.48;;;1.25;;
13445;SDS011;6795;51.232;3.764;2023-03-23T13:11:32;8.73;;;1.35;;
13445;SDS011;6795;51.232;3.764;2023-03-23T13:14:06;6.47;;;1.15;;
13445;SDS011;6795;51.232;3.764;2023-03-23T13:16:45;9.88;;;1.38;;
13445;SDS011;6795;51.232;3.764;2023-03-23T13:19:20;9.02;;;1.25;;
13445;SDS011;6795;51.232;3.764;2023-03-23T13:21:55;8.02;;;1.13;;
13445;SDS011;6795;51.232;3.764;2023-03-23T13:24:29;6.22;;;1.38;;
13445;SDS011;6795;51.232;3.764;2023-03-23T13:27:00;11.18;;;2.00;;
13445;SDS011;6795;51.232;3.764;2023-03-23T13:29:29;9.95;;;1.08;;
13445;SDS011;6795;51.232;3.764;2023-03-23T13:32:04;10.70;;;1.67;;
13445;SDS011;6795;51.232;3.764;2023-03-23T13:34:37;6.55;;;1.00;;
13445;SDS011;6795;51.232;3.764;2023-03-23T13:37:09;8.13;;;1.20;;
13445;SDS011;6795;51.232;3.764;2023-03-23T13:39:49;7.28;;;1.00;;
13445;SDS011;6795;51.232;3.764;2023-03-23T13:42:19;5.95;;;1.10;;
13445;SDS011;6795;51.232;3.764;2023-03-23T13:45:07;10.23;;;2.20;;
13445;SDS011;6795;51.232;3.764;2023-03-23T13:47:46;8.95;;;1.38;;
13445;SDS011;6795;51.232;3.764;2023-03-23T13:50:24;10.27;;;1.67;;
13445;SDS011;6795;51.232;3.764;2023-03-23T13:52:56;11.18;;;1.95;;
13445;SDS011;6795;51.232;3.764;2023-03-23T13:55:41;8.18;;;1.58;;
13445;SDS011;6795;51.232;3.764;2023-03-23T13:58:21;10.35;;;1.58;;
13445;SDS011;6795;51.232;3.764;2023-03-23T14:01:09;7.95;;;1.13;;
13445;SDS011;6795;51.232;3.764;2023-03-23T14:03:41;6.63;;;0.90;;
13445;SDS011;6795;51.232;3.764;2023-03-23T14:06:12;6.05;;;1.27;;
13445;SDS011;6795;51.232;3.764;2023-03-23T14:08:42;8.68;;;1.27;;
13445;SDS011;6795;51.232;3.764;2023-03-23T14:11:12;8.00;;;1.33;;
13445;SDS011;6795;51.232;3.764;2023-03-23T14:13:43;4.32;;;1.02;;
13445;SDS011;6795;51.232;3.764;2023-03-23T14:16:16;6.93;;;1.40;;
13445;SDS011;6795;51.232;3.764;2023-03-23T14:18:51;12.93;;;1.67;;
13445;SDS011;6795;51.232;3.764;2023-03-23T14:21:31;11.05;;;1.83;;
13445;SDS011;6795;51.232;3.764;2023-03-23T14:24:01;8.35;;;1.30;;
13445;SDS011;6795;51.232;3.764;2023-03-23T14:26:32;5.63;;;1.17;;
13445;SDS011;6795;51.232;3.764;2023-03-23T14:29:01;14.07;;;1.80;;
13445;SDS011;6795;51.232;3.764;2023-03-23T14:31:31;9.88;;;1.60;;
13445;SDS011;6795;51.232;3.764;2023-03-23T14:34:02;11.00;;;1.98;;
13445;SDS011;6795;51.232;3.764;2023-03-23T14:36:31;11.10;;;1.27;;
13445;SDS011;6795;51.232;3.764;2023-03-23T14:39:03;12.25;;;1.73;;
13445;SDS011;6795;51.232;3.764;2023-03-23T14:41:34;8.20;;;1.40;;
13445;SDS011;6795;51.232;3.764;2023-03-23T14:44:03;6.03;;;1.30;;
13445;SDS011;6795;51.232;3.764;2023-03-23T14:46:35;9.95;;;1.45;;
13445;SDS011;6795;51.232;3.764;2023-03-23T14:49:03;6.65;;;1.60;;
13445;SDS011;6795;51.232;3.764;2023-03-23T14:51:32;7.57;;;1.35;;
13445;SDS011;6795;51.232;3.764;2023-03-23T14:53:59;7.15;;;1.05;;
13445;SDS011;6795;51.232;3.764;2023-03-23T14:56:32;5.75;;;1.23;;
13445;SDS011;6795;51.232;3.764;2023-03-23T14:59:03;7.95;;;1.35;;
13445;SDS011;6795;51.232;3.764;2023-03-23T15:01:32;4.18;;;1.10;;
13445;SDS011;6795;51.232;3.764;2023-03-23T15:04:03;7.07;;;0.98;;
13445;SDS011;6795;51.232;3.764;2023-03-23T15:06:35;6.05;;;1.23;;
13445;SDS011;6795;51.232;3.764;2023-03-23T15:09:06;10.23;;;1.58;;
13445;SDS011;6795;51.232;3.764;2023-03-23T15:11:36;7.82;;;1.33;;
13445;SDS011;6795;51.232;3.764;2023-03-23T15:14:08;7.50;;;1.10;;
13445;SDS011;6795;51.232;3.764;2023-03-23T15:16:44;8.77;;;1.30;;
13445;SDS011;6795;51.232;3.764;2023-03-23T15:19:15;5.03;;;0.93;;
13445;SDS011;6795;51.232;3.764;2023-03-23T15:21:48;15.32;;;1.80;;
13445;SDS011;6795;51.232;3.764;2023-03-23T15:24:19;5.38;;;1.25;;
13445;SDS011;6795;51.232;3.764;2023-03-23T15:26:52;7.47;;;1.27;;
13445;SDS011;6795;51.232;3.764;2023-03-23T15:29:20;11.65;;;1.63;;
13445;SDS011;6795;51.232;3.764;2023-03-23T15:31:50;4.97;;;1.40;;
13445;SDS011;6795;51.232;3.764;2023-03-23T15:34:28;3.83;;;0.82;;
13445;SDS011;6795;51.232;3.764;2023-03-23T15:36:59;7.50;;;0.95;;